Monday, June 25, 2018, 3:15 PM EDT
Back to Local

KPQI, Presque Isle

Location: Presque Isle, ME, United States Lat: 46.683
Local Time: 3:15 PM EDT (19:15 GMT) Lon: -68.05
Time Zone: US/Eastern Elev: 534 ft

Show me the last for .
Show Decoded

2018-06-25 13:56 METAR KPQI 251756Z AUTO 34009KT 10SM FEW050 SCT120 18/06 A2998 RMK AO2 SLP194
                 T01830056 10183 20111 56000 =
2018-06-25 12:56 METAR KPQI 251656Z AUTO 00000KT 10SM FEW044 17/06 A2998 RMK AO2 SLP194 T01670056
                 =
2018-06-25 11:56 METAR KPQI 251556Z AUTO 09007KT 10SM FEW036 16/06 A2998 RMK AO2 SLP194 T01560061
                 =
2018-06-25 10:56 METAR KPQI 251456Z AUTO 04008KT 360V070 10SM SCT024 15/08 A2998 RMK AO2 SLP195
                 T01500083 50006 =
2018-06-25 10:39 METAR KPQI 251439Z AUTO VRB03KT 10SM SCT024 14/08 A2999 RMK AO2 =
2018-06-25 09:56 METAR KPQI 251356Z AUTO 06006KT 10SM BKN019 OVC027 13/08 A2999 RMK AO2 SLP197
                 T01280083 =
2018-06-25 08:56 METAR KPQI 251256Z AUTO 36007KT 10SM BKN019 12/09 A2997 RMK AO2 SLP191 T01220094
                 =
2018-06-25 08:51 METAR KPQI 251251Z AUTO 01007KT 10SM BKN019 12/09 A2996 RMK AO2 =
2018-06-25 07:56 METAR KPQI 251156Z AUTO 03008KT 10SM CLR 11/09 A2995 RMK AO2 SLP185 60021 70033
                 T01110089 10128 20106 50009 =
2018-06-25 06:56 METAR KPQI 251056Z AUTO 36008KT 10SM BKN047 OVC085 11/09 A2996 RMK AO2 SLP187
                 T01060089 =
2018-06-25 06:05 METAR KPQI 251005Z AUTO 06004KT 10SM SCT018 SCT080 OVC095 11/09 A2992 RMK AO2 =
2018-06-25 05:56 METAR KPQI 250956Z AUTO 06004KT 10SM SCT016 BKN020 OVC100 11/09 A2992 RMK AO2
                 RAE15 SLP174 P0000 T01110094 =
2018-06-25 05:31 METAR KPQI 250931Z AUTO 04004KT 10SM SCT010 OVC016 11/10 A2993 RMK AO2 RAE15
                 P0000 =
2018-06-25 05:10 METAR KPQI 250910Z AUTO 02007KT 10SM -RA BKN008 BKN016 OVC070 12/11 A2992 RMK
                 AO2 CIG 006V011 P0000 =
2018-06-25 04:56 METAR KPQI 250856Z AUTO 34007KT 10SM -RA FEW008 BKN070 OVC080 11/10 A2992 RMK
                 AO2 PRESRR SLP173 P0009 60021 T01110100 50008 =
2018-06-25 04:07 METAR KPQI 250807Z AUTO 00000KT 4SM RA BR SCT019 BKN043 OVC049 12/11 A2991 RMK
                 AO2 P0003 =
2018-06-25 03:56 METAR KPQI 250756Z AUTO 36004KT 10SM RA SCT019 BKN023 OVC050 12/11 A2992 RMK AO2
                 SLP173 P0007 T01170111 =
2018-06-25 03:49 METAR KPQI 250749Z AUTO 03004KT 10SM -RA BKN017 BKN045 OVC070 12/11 A2992 RMK
                 AO2 P0005 =
2018-06-25 02:56 METAR KPQI 250656Z AUTO 05005KT 10SM -RA FEW019 BKN070 OVC080 12/11 A2991 RMK
                 AO2 SLP167 P0005 T01220111 =
2018-06-25 02:41 METAR KPQI 250641Z AUTO 04005KT 10SM -RA SCT017 OVC070 12/11 A2991 RMK AO2 P0004
                 =
2018-06-25 02:23 METAR KPQI 250623Z AUTO 04005KT 10SM RA SCT006 BKN017 OVC070 12/12 A2990 RMK AO2
                 P0002 =
2018-06-25 01:56 METAR KPQI 250556Z AUTO 03005KT 10SM RA BKN006 BKN028 OVC060 13/12 A2990 RMK AO2
                 SLP163 P0005 60012 T01280117 10144 20128 55003 =
2018-06-25 01:49 METAR KPQI 250549Z AUTO 04003KT 10SM -RA SCT006 BKN028 OVC060 13/12 A2990 RMK
                 AO2 P0004 =
2018-06-25 00:56 METAR KPQI 250456Z AUTO 05003KT 10SM -RA FEW015 BKN022 OVC048 13/12 A2990 RMK
                 AO2 SLP163 P0002 T01280122 402280128 =
2018-06-25 00:21 METAR KPQI 250421Z AUTO 03003KT 10SM -RA BKN026 OVC038 13/12 A2990 RMK AO2 P0001
                 =
2018-06-24 23:56 METAR KPQI 250356Z AUTO 02005KT 10SM -RA FEW026 SCT046 OVC075 13/12 A2990 RMK
                 AO2 SLP163 P0003 T01280122 =
2018-06-24 22:56 METAR KPQI 250256Z AUTO 36005KT 10SM -RA OVC050 13/12 A2991 RMK AO2 SLP167 P0001
                 60002 T01330117 51011 =
2018-06-24 21:56 METAR KPQI 250156Z AUTO 36004KT 10SM RA OVC085 13/12 A2990 RMK AO2 SLP164 P0001
                 T01330117 =
2018-06-24 20:56 METAR KPQI 250056Z AUTO 03003KT 10SM -RA OVC090 14/11 A2989 RMK AO2 SLP162 P0000
                 T01390111 =
2018-06-24 19:56 METAR KPQI 242356Z AUTO 35009KT 10SM -RA OVC060 14/11 A2987 RMK AO2 RAB23 SLP158
                 P0000 60000 T01440106 10228 20144 51022 =
2018-06-24 18:56 METAR KPQI 242256Z AUTO 36012KT 10SM OVC050 17/09 A2986 RMK AO2 SLP151 T01670094
                 =
2018-06-24 17:56 METAR KPQI 242156Z AUTO 35012KT 10SM OVC055 18/10 A2983 RMK AO2 SLP142 T01780100
                 =
2018-06-24 16:56 METAR KPQI 242056Z AUTO 36011KT 10SM OVC055 20/10 A2981 RMK AO2 SLP134 T02000100
                 53014 =
2018-06-24 15:56 METAR KPQI 241956Z AUTO 34016KT 10SM OVC055 21/10 A2979 RMK AO2 SLP125 T02110100
                 =

Support USWX by starting your Amazon purchase here.